createdAt,value
2018-08-17T00:02:14.483Z,22.19
2018-08-17T00:04:45.489Z,22.18
2018-08-17T00:07:16.502Z,22.10
2018-08-17T00:09:47.496Z,22.12
2018-08-17T00:12:18.472Z,22.06
2018-08-17T00:14:49.469Z,22.06
2018-08-17T00:17:20.497Z,21.98
2018-08-17T00:19:51.518Z,22.03
2018-08-17T00:22:22.522Z,21.97
2018-08-17T00:24:53.472Z,21.90
2018-08-17T00:27:24.498Z,22.00
2018-08-17T00:29:55.476Z,22.01
2018-08-17T00:32:26.509Z,22.03
2018-08-17T00:34:57.478Z,22.01
2018-08-17T00:37:28.515Z,21.97
2018-08-17T00:39:59.493Z,21.99
2018-08-17T00:42:30.631Z,21.90
2018-08-17T00:45:01.467Z,21.96
2018-08-17T00:47:32.531Z,21.84
2018-08-17T00:50:03.497Z,21.88
2018-08-17T00:52:34.472Z,21.80
2018-08-17T00:55:05.625Z,21.67
2018-08-17T00:57:36.525Z,21.73
2018-08-17T01:00:08.261Z,21.70
2018-08-17T01:02:38.427Z,21.77
2018-08-17T01:05:09.518Z,21.66
2018-08-17T01:07:41.024Z,21.65
2018-08-17T01:10:12.362Z,21.58
2018-08-17T01:12:43.397Z,21.57
2018-08-17T01:15:14.494Z,21.45
2018-08-17T01:17:45.497Z,21.52
2018-08-17T01:20:16.495Z,21.54
2018-08-17T01:22:47.493Z,21.47
2018-08-17T01:25:18.481Z,21.47
2018-08-17T01:27:49.500Z,21.34
2018-08-17T01:30:20.476Z,21.39
2018-08-17T01:32:51.481Z,21.41
2018-08-17T01:35:22.485Z,21.30
2018-08-17T01:37:53.487Z,21.22
2018-08-17T01:40:24.477Z,21.10
2018-08-17T01:42:55.497Z,21.21
2018-08-17T01:45:26.485Z,21.12
2018-08-17T01:47:57.496Z,21.18
2018-08-17T01:50:28.485Z,21.05
2018-08-17T01:52:59.510Z,21.09
2018-08-17T01:55:30.481Z,21.10
2018-08-17T01:58:01.498Z,21.10
2018-08-17T02:00:32.501Z,21.12
2018-08-17T02:03:03.514Z,21.13
2018-08-17T02:05:34.473Z,21.19
2018-08-17T02:08:05.527Z,21.15
2018-08-17T02:10:36.504Z,21.18
2018-08-17T02:13:07.509Z,21.18
2018-08-17T02:15:38.497Z,21.10
2018-08-17T02:18:09.654Z,21.11
2018-08-17T02:20:40.481Z,21.15
2018-08-17T02:23:11.578Z,21.21
2018-08-17T02:25:42.517Z,21.17
2018-08-17T02:28:13.519Z,21.23
2018-08-17T02:30:44.506Z,21.12
2018-08-17T02:33:15.485Z,21.01
2018-08-17T02:35:46.499Z,21.02
2018-08-17T02:38:17.660Z,20.92
2018-08-17T02:40:48.601Z,20.94
2018-08-17T02:43:19.529Z,20.96
2018-08-17T02:45:50.498Z,21.02
2018-08-17T02:48:21.545Z,20.96
2018-08-17T02:50:52.743Z,21.01
2018-08-17T02:53:23.574Z,20.89
2018-08-17T02:55:54.482Z,20.76
2018-08-17T02:58:25.509Z,20.66
2018-08-17T03:00:56.510Z,20.62
2018-08-17T03:03:27.489Z,20.78
2018-08-17T03:05:58.493Z,20.68
2018-08-17T03:08:29.520Z,20.73
2018-08-17T03:11:00.520Z,20.78
2018-08-17T03:16:17.545Z,20.72
2018-08-17T03:18:48.484Z,20.72
2018-08-17T03:21:19.498Z,20.64
2018-08-17T03:23:50.484Z,20.72
2018-08-17T03:26:21.479Z,20.82
2018-08-17T03:28:52.524Z,20.76
2018-08-17T03:31:23.487Z,20.74
2018-08-17T03:33:54.509Z,20.72
2018-08-17T03:36:25.477Z,20.70
2018-08-17T03:38:56.497Z,20.79
2018-08-17T03:41:27.496Z,20.85
2018-08-17T03:43:58.478Z,20.72
2018-08-17T03:46:29.481Z,20.68
2018-08-17T03:49:00.521Z,20.74
2018-08-17T03:51:31.480Z,20.66
2018-08-17T03:54:02.517Z,20.81
2018-08-17T03:56:33.482Z,20.80
2018-08-17T03:59:04.525Z,20.83
2018-08-17T04:01:35.460Z,20.85
2018-08-17T04:04:06.601Z,20.82
2018-08-17T04:06:37.459Z,20.81
2018-08-17T04:09:10.692Z,20.93
2018-08-17T04:11:41.536Z,20.89
2018-08-17T04:14:12.561Z,20.97
2018-08-17T04:16:43.500Z,20.88
2018-08-17T04:19:14.493Z,20.88
2018-08-17T04:21:45.508Z,20.89
2018-08-17T04:24:16.465Z,20.83
2018-08-17T04:26:47.547Z,20.94
2018-08-17T04:29:18.508Z,20.88
2018-08-17T04:31:49.528Z,20.79
2018-08-17T04:34:20.504Z,20.70
2018-08-17T04:36:51.509Z,20.80
2018-08-17T04:39:22.504Z,20.81
2018-08-17T04:41:53.561Z,20.85
2018-08-17T04:44:24.499Z,20.74
2018-08-17T04:46:55.485Z,20.82
2018-08-17T04:49:26.544Z,20.70
2018-08-17T04:51:57.480Z,20.79
2018-08-17T04:54:28.557Z,20.72
2018-08-17T04:56:59.498Z,20.75
2018-08-17T04:59:30.500Z,20.72
2018-08-17T05:02:01.484Z,20.60
2018-08-17T05:04:32.523Z,20.61
2018-08-17T05:07:03.523Z,20.73
2018-08-17T05:09:34.477Z,20.68
2018-08-17T05:12:05.530Z,20.66
2018-08-17T05:14:36.558Z,20.78
2018-08-17T05:17:07.465Z,20.57
2018-08-17T05:19:38.596Z,20.67
2018-08-17T05:22:09.600Z,20.75
2018-08-17T05:24:40.479Z,20.74
2018-08-17T05:27:12.356Z,20.81
2018-08-17T05:29:43.398Z,20.74
2018-08-17T05:32:14.456Z,20.87
2018-08-17T05:34:46.322Z,20.95
2018-08-17T05:37:17.388Z,20.85
2018-08-17T05:39:48.458Z,21.22
2018-08-17T05:42:19.730Z,20.89
2018-08-17T05:44:50.544Z,20.91
2018-08-17T05:47:21.474Z,21.09
2018-08-17T05:49:53.299Z,21.09
2018-08-17T05:52:24.359Z,21.14
2018-08-17T05:54:55.377Z,21.23
2018-08-17T05:57:26.458Z,21.22
2018-08-17T05:59:57.522Z,21.33
2018-08-17T06:02:28.583Z,21.51
2018-08-17T06:04:59.806Z,21.75
2018-08-17T06:07:31.314Z,21.71
2018-08-17T06:10:02.395Z,21.72
2018-08-17T06:12:33.505Z,21.80
2018-08-17T06:15:05.293Z,21.64
2018-08-17T06:17:36.384Z,21.93
2018-08-17T06:20:08.548Z,22.00
2018-08-17T06:22:39.491Z,22.09
2018-08-17T06:25:14.423Z,21.90
2018-08-17T06:27:45.487Z,21.97
2018-08-17T06:30:17.007Z,22.02
2018-08-17T06:32:48.266Z,22.07
2018-08-17T06:35:18.481Z,22.08
2018-08-17T06:37:49.497Z,22.17
2018-08-17T06:40:20.522Z,22.29
2018-08-17T06:42:51.513Z,22.75
2018-08-17T06:45:23.422Z,22.75
2018-08-17T06:47:54.515Z,22.91
2018-08-17T06:50:25.525Z,22.94
2018-08-17T06:52:56.575Z,22.94
2018-08-17T06:55:27.535Z,23.12
2018-08-17T06:57:58.517Z,23.41
2018-08-17T07:00:29.531Z,23.32
2018-08-17T07:03:00.496Z,23.41
2018-08-17T07:05:31.526Z,23.46
2018-08-17T07:08:02.505Z,23.35
2018-08-17T07:10:33.494Z,23.69
2018-08-17T07:13:04.480Z,23.67
2018-08-17T07:15:35.511Z,23.81
2018-08-17T07:18:06.522Z,23.97
2018-08-17T07:20:37.549Z,24.06
2018-08-17T07:23:08.836Z,24.03
2018-08-17T07:25:41.341Z,24.14
2018-08-17T07:28:12.470Z,24.22
2018-08-17T07:30:43.493Z,24.44
2018-08-17T07:33:14.537Z,24.52
2018-08-17T07:35:45.528Z,24.72
2018-08-17T07:38:16.502Z,24.92
2018-08-17T07:40:47.538Z,24.77
2018-08-17T07:43:18.487Z,24.97
2018-08-17T07:45:49.570Z,25.12
2018-08-17T07:48:20.651Z,25.25
2018-08-17T07:50:51.510Z,25.19
2018-08-17T07:53:22.558Z,25.38
2018-08-17T07:55:53.598Z,25.51
2018-08-17T07:58:24.653Z,25.52
2018-08-17T08:00:55.503Z,25.61
2018-08-17T08:03:26.510Z,25.71
2018-08-17T08:05:57.434Z,25.78
2018-08-17T08:08:28.484Z,25.78
2018-08-17T08:10:59.510Z,25.94
2018-08-17T08:13:30.474Z,25.92
2018-08-17T08:16:01.511Z,25.96
2018-08-17T08:18:32.605Z,26.10
2018-08-17T08:21:03.563Z,26.15
2018-08-17T08:23:34.473Z,26.14
2018-08-17T08:26:05.513Z,26.25
2018-08-17T08:28:36.490Z,26.37
2018-08-17T08:31:12.641Z,26.52
2018-08-17T08:33:43.474Z,26.54
2018-08-17T08:36:14.497Z,26.81
2018-08-17T08:38:45.490Z,26.97
2018-08-17T08:41:16.484Z,27.20
2018-08-17T08:43:47.453Z,27.07
2018-08-17T08:46:18.601Z,27.52
2018-08-17T08:48:49.454Z,27.12
2018-08-17T08:51:20.422Z,27.74
2018-08-17T08:53:51.481Z,27.98
2018-08-17T08:56:22.475Z,28.07
2018-08-17T08:58:53.614Z,28.57
2018-08-17T09:01:24.667Z,28.40
2018-08-17T09:03:57.422Z,29.06
2018-08-17T09:06:28.723Z,29.12
2018-08-17T09:08:59.558Z,29.57
2018-08-17T09:11:30.482Z,29.32
2018-08-17T09:14:01.433Z,29.65
2018-08-17T09:16:32.461Z,29.43
2018-08-17T09:21:48.481Z,30.02
2018-08-17T09:24:19.479Z,30.13
2018-08-17T09:26:50.462Z,30.24
2018-08-17T09:29:21.469Z,30.28
2018-08-17T09:31:52.493Z,30.70
2018-08-17T09:34:23.556Z,30.49
2018-08-17T09:36:54.492Z,30.33
2018-08-17T09:39:25.495Z,30.48
2018-08-17T09:41:56.609Z,30.85
2018-08-17T09:44:27.631Z,30.77
2018-08-17T09:46:58.582Z,31.12
2018-08-17T09:49:31.521Z,30.45
2018-08-17T09:52:02.531Z,30.72
2018-08-17T09:54:33.537Z,30.93
2018-08-17T09:57:04.503Z,30.89
2018-08-17T09:59:35.527Z,30.92
2018-08-17T10:02:11.762Z,30.93
2018-08-17T10:04:46.458Z,31.48
2018-08-17T10:07:22.683Z,31.03
2018-08-17T10:09:56.301Z,31.18
2018-08-17T10:15:07.730Z,31.33
2018-08-17T10:17:38.600Z,31.89
2018-08-17T10:20:18.745Z,31.38
2018-08-17T10:22:49.637Z,31.40
2018-08-17T10:25:23.600Z,31.11
2018-08-17T10:27:56.031Z,30.89
2018-08-17T10:30:27.452Z,31.50
2018-08-17T10:32:59.644Z,31.22
2018-08-17T10:35:32.086Z,31.42
2018-08-17T10:38:07.505Z,31.62
2018-08-17T10:40:38.558Z,31.70
2018-08-17T10:43:09.539Z,30.91
2018-08-17T10:45:40.509Z,31.41
2018-08-17T10:48:11.575Z,31.35
2018-08-17T10:50:42.557Z,31.96
2018-08-17T10:53:13.606Z,32.24
2018-08-17T10:55:48.515Z,31.80
2018-08-17T10:58:19.591Z,32.56
2018-08-17T11:03:34.625Z,32.00
2018-08-17T11:06:05.622Z,32.34
2018-08-17T11:08:36.489Z,32.65
2018-08-17T11:11:07.608Z,32.65
2018-08-17T11:13:38.572Z,32.57
2018-08-17T11:16:12.395Z,32.46
2018-08-17T11:18:43.537Z,32.76
2018-08-17T11:21:14.512Z,32.46
2018-08-17T11:23:45.486Z,32.99
2018-08-17T11:26:16.528Z,33.34
2018-08-17T11:28:47.521Z,33.12
2018-08-17T11:31:18.545Z,33.12
2018-08-17T11:33:49.531Z,33.05
2018-08-17T11:36:25.389Z,33.50
2018-08-17T11:38:56.507Z,33.04
2018-08-17T11:41:27.517Z,34.03
2018-08-17T11:44:04.302Z,34.38
2018-08-17T11:46:35.381Z,34.64
2018-08-17T11:49:06.463Z,34.44
2018-08-17T11:51:41.374Z,34.77
2018-08-17T11:54:13.550Z,34.51
2018-08-17T11:56:44.486Z,34.23
2018-08-17T11:59:15.522Z,33.87
2018-08-17T12:01:46.528Z,34.70
2018-08-17T12:04:17.505Z,34.07
2018-08-17T12:06:48.495Z,34.48
2018-08-17T12:09:19.494Z,34.51
2018-08-17T12:11:50.481Z,33.79
2018-08-17T12:14:22.441Z,33.86
2018-08-17T12:16:53.537Z,34.29
2018-08-17T12:19:24.525Z,34.84
2018-08-17T12:21:55.543Z,35.35
2018-08-17T12:27:06.649Z,34.48
2018-08-17T12:29:37.570Z,34.91
2018-08-17T12:32:09.857Z,35.49
2018-08-17T12:34:40.613Z,35.01
2018-08-17T12:37:11.546Z,35.64
2018-08-17T12:39:42.517Z,35.52
2018-08-17T12:42:13.485Z,35.49
2018-08-17T12:44:44.509Z,35.39
2018-08-17T12:47:15.534Z,34.13
2018-08-17T12:49:46.490Z,35.48
2018-08-17T12:52:17.516Z,35.42
2018-08-17T12:54:48.515Z,34.85
2018-08-17T13:00:07.648Z,35.18
2018-08-17T13:02:38.589Z,34.21
2018-08-17T13:05:09.594Z,35.24
2018-08-17T13:07:40.481Z,35.52
2018-08-17T13:10:11.521Z,35.74
2018-08-17T13:12:42.511Z,35.80
2018-08-17T13:15:13.517Z,36.17
2018-08-17T13:17:46.489Z,35.27
2018-08-17T13:20:18.241Z,33.78
2018-08-17T13:22:49.311Z,34.82
2018-08-17T13:25:20.601Z,35.50
2018-08-17T13:27:51.574Z,35.80
2018-08-17T13:30:22.541Z,35.68
2018-08-17T13:32:53.499Z,35.81
2018-08-17T13:35:24.627Z,34.82
2018-08-17T13:37:55.572Z,34.39
2018-08-17T13:40:26.568Z,34.33
2018-08-17T13:42:57.550Z,35.24
2018-08-17T13:45:28.566Z,35.08
2018-08-17T13:47:59.539Z,35.31
2018-08-17T13:50:30.563Z,34.85
2018-08-17T13:53:01.513Z,34.40
2018-08-17T13:55:32.564Z,34.56
2018-08-17T13:58:03.491Z,34.13
2018-08-17T14:00:34.509Z,34.42
2018-08-17T14:03:05.594Z,33.86
2018-08-17T14:05:36.561Z,34.17
2018-08-17T14:08:07.553Z,35.03
2018-08-17T14:10:38.519Z,35.29
2018-08-17T14:13:09.513Z,34.79
2018-08-17T14:15:40.588Z,34.18
2018-08-17T14:18:11.506Z,33.57
2018-08-17T14:20:42.517Z,33.71
2018-08-17T14:23:13.601Z,33.00
2018-08-17T14:25:44.690Z,32.86
2018-08-17T14:28:15.616Z,32.92
2018-08-17T14:30:46.602Z,32.83
2018-08-17T14:33:17.606Z,32.09
2018-08-17T14:35:48.598Z,31.96
2018-08-17T14:38:33.385Z,31.35
2018-08-17T14:41:05.431Z,31.29
2018-08-17T14:43:36.497Z,31.14
2018-08-17T14:46:07.493Z,31.35
2018-08-17T14:48:38.549Z,31.00
2018-08-17T14:51:09.497Z,30.75
2018-08-17T14:53:40.583Z,30.64
2018-08-17T14:56:11.522Z,30.74
2018-08-17T14:58:42.480Z,30.75
2018-08-17T15:01:13.644Z,30.32
2018-08-17T15:03:44.550Z,30.04
2018-08-17T15:06:15.584Z,30.09
2018-08-17T15:08:46.583Z,30.00
2018-08-17T15:11:17.722Z,29.96
2018-08-17T15:13:48.653Z,30.09
2018-08-17T15:16:19.525Z,30.20
2018-08-17T15:18:50.526Z,30.00
2018-08-17T15:21:21.541Z,30.12
2018-08-17T15:23:52.533Z,30.32
2018-08-17T15:26:23.548Z,30.18
2018-08-17T15:28:54.535Z,30.36
2018-08-17T15:31:25.554Z,30.07
2018-08-17T15:33:56.541Z,30.34
2018-08-17T15:36:27.504Z,30.38
2018-08-17T15:38:58.528Z,30.16
2018-08-17T15:41:29.576Z,29.86
2018-08-17T15:44:00.477Z,30.18
2018-08-17T15:46:35.192Z,30.14
2018-08-17T15:49:06.430Z,30.19
2018-08-17T15:51:37.585Z,30.28
2018-08-17T15:54:08.523Z,30.33
2018-08-17T15:56:39.521Z,30.12
2018-08-17T15:59:10.468Z,30.09
2018-08-17T16:01:41.482Z,30.01
2018-08-17T16:04:12.472Z,29.87
2018-08-17T16:06:43.670Z,29.70
2018-08-17T16:09:14.961Z,29.49
2018-08-17T16:11:46.012Z,29.31
2018-08-17T16:14:17.196Z,29.29
2018-08-17T16:16:48.454Z,29.32
2018-08-17T16:19:19.458Z,29.04
2018-08-17T16:21:50.433Z,28.74
2018-08-17T16:24:21.460Z,28.85
2018-08-17T16:26:52.502Z,28.71
2018-08-17T16:29:23.537Z,28.52
2018-08-17T16:31:54.568Z,28.51
2018-08-17T16:34:25.433Z,28.30
2018-08-17T16:36:56.491Z,28.25
2018-08-17T16:39:27.466Z,28.09
2018-08-17T16:41:58.637Z,28.00
2018-08-17T16:44:29.529Z,28.14
2018-08-17T16:47:00.502Z,27.92
2018-08-17T16:49:31.487Z,27.85
2018-08-17T16:52:02.593Z,27.85
2018-08-17T16:54:33.564Z,27.76
2018-08-17T16:57:04.462Z,27.86
2018-08-17T16:59:35.574Z,27.83
2018-08-17T17:02:06.545Z,27.52
2018-08-17T17:04:42.958Z,27.72
2018-08-17T17:07:13.621Z,27.67
2018-08-17T17:09:44.737Z,27.74
2018-08-17T17:12:20.397Z,27.61
2018-08-17T17:14:51.778Z,27.41
2018-08-17T17:17:22.577Z,27.39
2018-08-17T17:19:53.480Z,27.30
2018-08-17T17:22:26.294Z,27.23
2018-08-17T17:25:10.292Z,27.25
2018-08-17T17:27:41.630Z,26.97
2018-08-17T17:30:12.554Z,26.87
2018-08-17T17:32:43.528Z,26.88
2018-08-17T17:35:14.559Z,27.02
2018-08-17T17:37:45.514Z,26.75
2018-08-17T17:40:16.485Z,26.74
2018-08-17T17:42:47.497Z,26.68
2018-08-17T17:45:18.523Z,26.43
2018-08-17T17:47:49.574Z,26.41
2018-08-17T17:50:20.490Z,26.35
2018-08-17T17:52:51.491Z,26.14
2018-08-17T17:55:22.581Z,26.15
2018-08-17T17:57:54.639Z,25.94
2018-08-17T18:00:25.505Z,25.77
2018-08-17T18:02:56.563Z,25.78
2018-08-17T18:05:27.514Z,25.61
2018-08-17T18:08:07.321Z,25.57
2018-08-17T18:10:38.357Z,25.56
2018-08-17T18:13:09.468Z,25.44
2018-08-17T18:15:40.382Z,25.41
2018-08-17T18:18:11.630Z,25.20
2018-08-17T18:20:42.489Z,25.26
2018-08-17T18:23:13.509Z,25.24
2018-08-17T18:25:44.496Z,25.15
2018-08-17T18:28:15.534Z,25.11
2018-08-17T18:30:46.581Z,25.09
2018-08-17T18:33:17.514Z,24.95
2018-08-17T18:35:48.469Z,24.92
2018-08-17T18:38:19.494Z,24.88
2018-08-17T18:40:50.497Z,24.82
2018-08-17T18:43:21.492Z,24.82
2018-08-17T18:45:52.491Z,24.70
2018-08-17T18:48:23.517Z,24.72
2018-08-17T18:50:54.493Z,24.73
2018-08-17T18:53:25.491Z,24.67
2018-08-17T18:55:56.502Z,24.58
2018-08-17T18:58:27.511Z,24.62
2018-08-17T19:00:59.286Z,24.45
2018-08-17T19:03:30.358Z,24.42
2018-08-17T19:06:01.347Z,24.33
2018-08-17T19:08:32.358Z,24.24
2018-08-17T19:11:03.370Z,24.28
2018-08-17T19:13:34.593Z,24.20
2018-08-17T19:16:05.546Z,24.10
2018-08-17T19:18:36.490Z,24.07
2018-08-17T19:21:13.222Z,24.05
2018-08-17T19:23:44.394Z,23.78
2018-08-17T19:26:15.461Z,23.86
2018-08-17T19:28:51.607Z,23.80
2018-08-17T19:31:22.525Z,23.73
2018-08-17T19:33:53.750Z,23.73
2018-08-17T19:36:24.541Z,23.62
2018-08-17T19:38:55.476Z,23.51
2018-08-17T19:41:26.489Z,23.38
2018-08-17T19:43:57.487Z,23.37
2018-08-17T19:46:28.454Z,23.36
2018-08-17T19:48:59.493Z,23.37
2018-08-17T19:51:30.481Z,23.18
2018-08-17T19:54:01.493Z,23.20
2018-08-17T19:56:32.453Z,23.21
2018-08-17T19:59:03.502Z,23.17
2018-08-17T20:01:34.496Z,23.15
2018-08-17T20:04:05.501Z,23.14
2018-08-17T20:06:36.493Z,22.96
2018-08-17T20:09:10.645Z,22.95
2018-08-17T20:11:41.564Z,22.93
2018-08-17T20:14:12.514Z,22.96
2018-08-17T20:16:46.565Z,22.88
2018-08-17T20:19:17.601Z,22.86
2018-08-17T20:21:48.522Z,22.90
2018-08-17T20:24:19.457Z,22.77
2018-08-17T20:26:53.378Z,22.80
2018-08-17T20:29:24.349Z,22.89
2018-08-17T20:31:55.369Z,22.86
2018-08-17T20:34:26.461Z,22.77
2018-08-17T20:36:57.502Z,22.70
2018-08-17T20:39:28.478Z,22.79
2018-08-17T20:41:59.479Z,22.65
2018-08-17T20:44:30.477Z,22.70
2018-08-17T20:47:01.475Z,22.57
2018-08-17T20:49:32.484Z,22.71
2018-08-17T20:52:04.421Z,22.61
2018-08-17T20:54:35.488Z,22.60
2018-08-17T20:57:06.490Z,22.47
2018-08-17T20:59:37.468Z,22.43
2018-08-17T21:02:08.461Z,22.42
2018-08-17T21:04:39.502Z,22.34
2018-08-17T21:07:10.518Z,22.30
2018-08-17T21:09:41.488Z,22.31
2018-08-17T21:12:12.485Z,22.19
2018-08-17T21:14:43.502Z,22.16
2018-08-17T21:19:54.526Z,22.11
2018-08-17T21:22:25.490Z,22.14
2018-08-17T21:24:56.549Z,22.16
2018-08-17T21:27:27.499Z,22.06
2018-08-17T21:29:58.510Z,22.15
2018-08-17T21:32:29.491Z,22.12
2018-08-17T21:35:00.573Z,22.04
2018-08-17T21:37:31.548Z,22.01
2018-08-17T21:40:02.505Z,22.08
2018-08-17T21:42:33.509Z,22.08
2018-08-17T21:45:04.525Z,22.12
2018-08-17T21:47:35.459Z,22.10
2018-08-17T21:50:12.227Z,22.08
2018-08-17T21:52:44.294Z,22.02
2018-08-17T21:55:15.458Z,22.10
2018-08-17T21:57:46.474Z,22.03
2018-08-17T22:00:29.225Z,22.07
2018-08-17T22:03:00.415Z,21.99
2018-08-17T22:05:32.839Z,21.90
2018-08-17T22:08:03.653Z,21.94
2018-08-17T22:10:34.558Z,21.89
2018-08-17T22:13:05.485Z,21.95
2018-08-17T22:15:36.483Z,21.87
2018-08-17T22:18:07.465Z,21.91
2018-08-17T22:20:38.488Z,21.86
2018-08-17T22:23:09.834Z,21.85
2018-08-17T22:25:40.637Z,21.80
2018-08-17T22:28:11.472Z,21.71
2018-08-17T22:30:42.487Z,21.64
2018-08-17T22:33:14.385Z,21.56
2018-08-17T22:35:45.484Z,21.49
2018-08-17T22:38:16.480Z,21.60
2018-08-17T22:40:47.465Z,21.48
2018-08-17T22:43:18.448Z,21.48
2018-08-17T22:45:50.289Z,21.38
2018-08-17T22:48:21.475Z,21.40
2018-08-17T22:50:52.455Z,21.32
2018-08-17T22:53:23.494Z,21.29
2018-08-17T22:55:54.509Z,21.30
2018-08-17T22:58:25.465Z,21.23
2018-08-17T23:00:56.506Z,21.34
2018-08-17T23:03:27.473Z,21.30
2018-08-17T23:05:58.498Z,21.35
2018-08-17T23:08:29.611Z,21.28
2018-08-17T23:11:00.490Z,21.18
2018-08-17T23:13:31.478Z,21.36
2018-08-17T23:16:02.461Z,21.26
2018-08-17T23:18:33.583Z,21.22
2018-08-17T23:21:04.560Z,21.18
2018-08-17T23:23:35.530Z,21.11
2018-08-17T23:26:06.454Z,21.13
2018-08-17T23:28:37.425Z,21.09
2018-08-17T23:31:08.485Z,21.06
2018-08-17T23:33:39.493Z,21.06
2018-08-17T23:36:10.489Z,20.94
2018-08-17T23:38:41.537Z,21.07
2018-08-17T23:41:12.552Z,21.06
2018-08-17T23:43:43.577Z,21.02
2018-08-17T23:46:14.501Z,21.05
2018-08-17T23:48:45.502Z,21.01
2018-08-17T23:51:16.518Z,21.02
2018-08-17T23:53:47.510Z,20.94
2018-08-17T23:56:18.518Z,20.99
2018-08-17T23:58:49.497Z,20.95
